createdAt,value
2017-10-03T00:01:42.139Z,97.90
2017-10-03T00:04:10.299Z,97.60
2017-10-03T00:06:38.391Z,97.60
2017-10-03T00:09:07.243Z,97.40
2017-10-03T00:11:35.331Z,97.40
2017-10-03T00:14:03.451Z,97.60
2017-10-03T00:16:31.544Z,97.70
2017-10-03T00:18:59.655Z,97.40
2017-10-03T00:21:27.746Z,97.80
2017-10-03T00:23:55.843Z,97.60
2017-10-03T00:26:23.942Z,97.80
2017-10-03T00:28:52.266Z,97.70
2017-10-03T00:31:22.247Z,97.90
2017-10-03T00:33:50.363Z,97.90
2017-10-03T00:36:19.292Z,98.10
2017-10-03T00:38:49.430Z,98.10
2017-10-03T00:41:18.211Z,97.70
2017-10-03T00:43:46.311Z,98.00
2017-10-03T00:46:14.395Z,98.10
2017-10-03T00:48:42.508Z,97.90
2017-10-03T00:51:11.635Z,97.90
2017-10-03T00:53:39.731Z,98.20
2017-10-03T00:56:07.823Z,98.10
2017-10-03T00:58:36.759Z,97.80
2017-10-03T01:01:04.839Z,97.80
2017-10-03T01:03:32.936Z,97.80
2017-10-03T01:06:01.298Z,97.70
2017-10-03T01:08:29.382Z,97.60
2017-10-03T01:10:57.500Z,97.40
2017-10-03T01:13:26.498Z,97.60
2017-10-03T01:15:54.619Z,97.40
2017-10-03T01:18:22.758Z,97.60
2017-10-03T01:20:51.620Z,97.40
2017-10-03T01:23:20.512Z,97.60
2017-10-03T01:25:49.736Z,97.60
2017-10-03T01:28:18.128Z,97.10
2017-10-03T01:30:46.214Z,97.70
2017-10-03T01:33:14.329Z,97.50
2017-10-03T01:35:43.224Z,97.50
2017-10-03T01:38:12.098Z,97.80
2017-10-03T01:40:41.043Z,97.40
2017-10-03T01:43:09.145Z,97.30
2017-10-03T01:45:37.275Z,97.40
2017-10-03T01:48:05.378Z,97.70
2017-10-03T01:50:33.490Z,97.70
2017-10-03T01:53:02.338Z,98.10
2017-10-03T01:55:30.444Z,98.00
2017-10-03T01:57:58.531Z,98.10
2017-10-03T02:00:26.635Z,98.10
2017-10-03T02:02:54.726Z,98.10
2017-10-03T02:05:22.894Z,97.80
2017-10-03T02:07:51.023Z,98.00
2017-10-03T02:10:19.897Z,98.10
2017-10-03T02:12:49.080Z,98.10
2017-10-03T02:15:17.170Z,97.90
2017-10-03T02:17:46.046Z,98.30
2017-10-03T02:20:14.230Z,98.20
2017-10-03T02:22:42.321Z,98.00
2017-10-03T02:25:10.428Z,98.10
2017-10-03T02:27:38.536Z,98.20
2017-10-03T02:30:06.639Z,98.00
2017-10-03T02:32:34.782Z,98.10
2017-10-03T02:35:03.896Z,98.10
2017-10-03T02:37:33.518Z,98.50
2017-10-03T02:40:01.602Z,98.40
2017-10-03T02:42:29.813Z,98.20
2017-10-03T02:44:57.965Z,98.00
2017-10-03T02:47:26.046Z,97.90
2017-10-03T02:49:54.136Z,97.80
2017-10-03T02:52:22.247Z,98.30
2017-10-03T02:54:51.123Z,98.00
2017-10-03T02:57:19.234Z,98.00
2017-10-03T02:59:47.314Z,98.00
2017-10-03T03:02:15.424Z,98.30
2017-10-03T03:04:43.534Z,98.00
2017-10-03T03:07:11.642Z,98.10
2017-10-03T03:09:40.515Z,98.40
2017-10-03T03:12:08.616Z,98.40
2017-10-03T03:14:36.707Z,98.00
2017-10-03T03:17:04.809Z,98.40
2017-10-03T03:19:33.687Z,98.00
2017-10-03T03:22:01.763Z,98.00
2017-10-03T03:24:29.877Z,98.20
2017-10-03T03:26:57.979Z,97.80
2017-10-03T03:29:26.066Z,97.60
2017-10-03T03:31:54.152Z,97.80
2017-10-03T03:34:23.036Z,97.70
2017-10-03T03:36:51.641Z,97.70
2017-10-03T03:39:19.755Z,97.40
2017-10-03T03:41:48.595Z,97.20
2017-10-03T03:44:18.446Z,97.50
2017-10-03T03:46:46.554Z,97.50
2017-10-03T03:49:14.657Z,97.70
2017-10-03T03:51:43.508Z,97.70
2017-10-03T03:54:11.620Z,97.60
2017-10-03T03:56:40.492Z,97.80
2017-10-03T03:59:09.699Z,97.80
2017-10-03T04:01:39.618Z,97.60
2017-10-03T04:04:08.483Z,97.70
2017-10-03T04:06:36.820Z,97.60
2017-10-03T04:09:04.939Z,97.60
2017-10-03T04:11:33.034Z,97.80
2017-10-03T04:14:01.878Z,97.60
2017-10-03T04:16:30.199Z,97.60
2017-10-03T04:18:58.306Z,98.20
2017-10-03T04:21:26.438Z,97.80
2017-10-03T04:23:55.355Z,98.30
2017-10-03T04:26:23.443Z,98.20
2017-10-03T04:28:51.569Z,98.10
2017-10-03T04:31:19.669Z,98.00
2017-10-03T04:33:47.751Z,98.10
2017-10-03T04:36:15.858Z,97.90
2017-10-03T04:38:44.062Z,98.10
2017-10-03T04:41:12.165Z,98.00
2017-10-03T04:43:40.303Z,97.90
2017-10-03T04:46:08.516Z,97.70
2017-10-03T04:48:36.592Z,97.80
2017-10-03T04:51:04.704Z,98.20
2017-10-03T04:53:33.967Z,98.00
2017-10-03T04:56:02.075Z,98.00
2017-10-03T04:58:30.203Z,98.00
2017-10-03T05:00:58.278Z,98.00
2017-10-03T05:03:26.402Z,98.10
2017-10-03T05:05:54.500Z,98.20
2017-10-03T05:08:22.607Z,98.20
2017-10-03T05:10:50.724Z,97.70
2017-10-03T05:13:18.830Z,97.60
2017-10-03T05:15:47.687Z,97.80
2017-10-03T05:18:15.792Z,97.80
2017-10-03T05:20:43.891Z,98.10
2017-10-03T05:23:11.968Z,98.10
2017-10-03T05:25:40.088Z,97.60
2017-10-03T05:28:08.164Z,97.70
2017-10-03T05:30:36.263Z,97.70
2017-10-03T05:39:48.666Z,97.80
2017-10-03T05:42:16.785Z,97.60
2017-10-03T05:44:44.886Z,97.50
2017-10-03T05:47:13.061Z,97.90
2017-10-03T05:49:41.268Z,97.40
2017-10-03T05:52:09.346Z,97.60
2017-10-03T05:54:37.721Z,97.80
2017-10-03T05:57:05.820Z,97.60
2017-10-03T05:59:33.919Z,97.90
2017-10-03T06:02:02.436Z,98.00
2017-10-03T06:04:30.530Z,97.60
2017-10-03T06:06:58.815Z,97.80
2017-10-03T06:09:27.773Z,97.80
2017-10-03T06:11:56.448Z,97.70
2017-10-03T06:14:24.581Z,98.00
2017-10-03T06:16:52.707Z,98.00
2017-10-03T06:19:20.884Z,98.00
2017-10-03T06:21:48.975Z,97.80
2017-10-03T06:24:17.863Z,98.10
2017-10-03T06:26:45.961Z,97.80
2017-10-03T06:29:14.846Z,97.40
2017-10-03T06:31:43.202Z,97.40
2017-10-03T06:34:11.292Z,97.10
2017-10-03T06:36:39.391Z,97.60
2017-10-03T06:39:07.491Z,97.60
2017-10-03T06:41:35.695Z,97.40
2017-10-03T06:44:04.199Z,97.00
2017-10-03T06:46:33.135Z,97.60
2017-10-03T06:49:01.263Z,97.30
2017-10-03T06:51:29.349Z,97.70
2017-10-03T06:53:57.454Z,97.40
2017-10-03T06:56:25.604Z,97.70
2017-10-03T06:58:55.597Z,97.30
2017-10-03T07:01:23.924Z,97.00
2017-10-03T07:03:52.529Z,97.40
2017-10-03T07:06:20.683Z,96.80
2017-10-03T07:08:49.827Z,97.40
2017-10-03T07:11:17.922Z,97.60
2017-10-03T07:13:46.048Z,97.20
2017-10-03T07:16:14.174Z,97.00
2017-10-03T07:18:42.287Z,96.80
2017-10-03T07:21:10.372Z,97.10
2017-10-03T07:23:38.507Z,96.90
2017-10-03T07:26:06.823Z,97.00
2017-10-03T07:28:35.699Z,96.80
2017-10-03T07:31:03.796Z,96.80
2017-10-03T07:33:33.791Z,96.90
2017-10-03T07:36:02.110Z,96.90
2017-10-03T07:38:30.329Z,96.80
2017-10-03T07:40:58.492Z,96.80
2017-10-03T07:43:26.599Z,96.60
2017-10-03T07:45:56.775Z,96.70
2017-10-03T07:48:25.078Z,96.40
2017-10-03T07:50:53.517Z,97.10
2017-10-03T07:53:21.802Z,96.70
2017-10-03T07:55:50.402Z,96.30
2017-10-03T07:58:18.507Z,96.60
2017-10-03T08:00:47.404Z,96.10
2017-10-03T08:03:15.483Z,96.10
2017-10-03T08:05:43.593Z,96.40
2017-10-03T08:08:12.904Z,96.20
2017-10-03T08:10:41.003Z,95.80
2017-10-03T08:13:09.110Z,95.90
2017-10-03T08:15:37.212Z,96.50
2017-10-03T08:18:05.546Z,95.90
2017-10-03T08:20:33.642Z,95.80
2017-10-03T08:23:01.766Z,95.90
2017-10-03T08:25:30.013Z,96.00
2017-10-03T08:27:58.199Z,95.30
2017-10-03T08:30:26.419Z,95.40
2017-10-03T08:32:54.523Z,95.40
2017-10-03T08:35:22.634Z,94.90
2017-10-03T08:37:50.875Z,95.20
2017-10-03T08:40:19.130Z,94.80
2017-10-03T08:42:47.931Z,94.60
2017-10-03T08:45:16.055Z,94.00
2017-10-03T08:47:44.199Z,94.60
2017-10-03T08:50:12.332Z,94.80
2017-10-03T08:52:40.459Z,94.80
2017-10-03T08:55:08.580Z,94.50
2017-10-03T08:57:37.697Z,94.60
2017-10-03T09:00:06.294Z,94.60
2017-10-03T09:02:34.429Z,93.80
2017-10-03T09:05:02.938Z,93.90
2017-10-03T09:07:31.172Z,93.50
2017-10-03T09:09:59.376Z,94.10
2017-10-03T09:12:27.698Z,93.80
2017-10-03T09:14:55.831Z,92.90
2017-10-03T09:17:23.923Z,93.00
2017-10-03T09:19:52.040Z,93.40
2017-10-03T09:22:20.248Z,92.70
2017-10-03T09:24:48.344Z,92.80
2017-10-03T09:27:16.522Z,92.90
2017-10-03T09:29:45.407Z,92.00
2017-10-03T09:32:13.541Z,92.00
2017-10-03T09:34:41.663Z,92.70
2017-10-03T09:37:10.139Z,92.20
2017-10-03T09:39:38.282Z,92.40
2017-10-03T09:42:06.371Z,92.30
2017-10-03T09:44:34.486Z,91.40
2017-10-03T09:47:02.578Z,91.20
2017-10-03T09:49:31.582Z,91.40
2017-10-03T09:51:59.728Z,91.10
2017-10-03T09:54:27.819Z,91.30
2017-10-03T09:56:56.107Z,91.30
2017-10-03T09:59:24.994Z,90.50
2017-10-03T10:01:54.156Z,90.30
2017-10-03T10:04:22.275Z,90.30
2017-10-03T10:06:50.399Z,89.30
2017-10-03T10:09:18.579Z,87.80
2017-10-03T10:11:46.681Z,87.70
2017-10-03T10:14:16.516Z,86.10
2017-10-03T10:16:45.396Z,86.10
2017-10-03T10:19:14.247Z,85.50
2017-10-03T10:21:42.445Z,85.50
2017-10-03T10:24:10.724Z,85.80
2017-10-03T10:26:39.682Z,84.90
2017-10-03T10:29:07.788Z,85.60
2017-10-03T10:31:35.992Z,84.60
2017-10-03T10:34:04.098Z,83.30
2017-10-03T10:36:32.225Z,85.20
2017-10-03T10:39:01.110Z,87.20
2017-10-03T10:41:29.217Z,87.00
2017-10-03T10:43:57.308Z,85.50
2017-10-03T10:46:25.408Z,84.80
2017-10-03T10:48:53.486Z,82.90
2017-10-03T10:51:21.642Z,85.90
2017-10-03T10:53:49.793Z,81.30
2017-10-03T10:56:17.878Z,82.20
2017-10-03T10:58:46.032Z,82.50
2017-10-03T11:01:14.131Z,83.20
2017-10-03T11:03:42.225Z,81.00
2017-10-03T11:06:10.364Z,80.10
2017-10-03T11:08:38.465Z,81.30
2017-10-03T11:11:06.569Z,79.20
2017-10-03T11:13:35.563Z,80.50
2017-10-03T11:16:04.423Z,81.20
2017-10-03T11:18:32.538Z,81.20
2017-10-03T11:21:00.666Z,81.20
2017-10-03T11:23:46.416Z,77.10
2017-10-03T11:26:14.532Z,77.60
2017-10-03T11:28:42.636Z,80.10
2017-10-03T11:31:10.752Z,73.90
2017-10-03T11:33:38.934Z,75.20
2017-10-03T11:36:07.079Z,74.30
2017-10-03T11:38:35.169Z,75.00
2017-10-03T11:41:03.629Z,73.60
2017-10-03T11:43:32.647Z,75.10
2017-10-03T11:46:00.738Z,74.20
2017-10-03T11:48:28.847Z,76.20
2017-10-03T11:50:56.947Z,76.60
2017-10-03T11:53:25.038Z,73.40
2017-10-03T11:55:53.169Z,75.30
2017-10-03T11:58:22.077Z,75.20
2017-10-03T12:00:50.265Z,74.00
2017-10-03T12:03:18.357Z,70.70
2017-10-03T12:05:46.444Z,73.00
2017-10-03T12:08:14.544Z,71.30
2017-10-03T12:10:43.428Z,70.90
2017-10-03T12:13:12.314Z,68.80
2017-10-03T12:15:40.445Z,68.70
2017-10-03T12:18:08.551Z,69.30
2017-10-03T12:20:37.743Z,70.60
2017-10-03T12:23:06.082Z,68.30
2017-10-03T12:25:35.103Z,69.70
2017-10-03T12:28:03.563Z,67.60
2017-10-03T12:30:31.673Z,66.50
2017-10-03T12:32:59.787Z,67.10
2017-10-03T12:35:27.973Z,69.50
2017-10-03T12:37:56.874Z,67.40
2017-10-03T12:40:24.974Z,67.50
2017-10-03T12:42:53.088Z,69.00
2017-10-03T12:45:21.166Z,68.20
2017-10-03T12:47:49.267Z,69.40
2017-10-03T12:50:17.399Z,68.10
2017-10-03T12:52:45.493Z,68.40
2017-10-03T12:55:14.640Z,69.80
2017-10-03T12:57:42.756Z,69.80
2017-10-03T13:00:10.921Z,70.40
2017-10-03T13:02:39.132Z,69.30
2017-10-03T13:05:08.094Z,68.40
2017-10-03T13:07:36.155Z,69.30
2017-10-03T13:10:04.262Z,68.60
2017-10-03T13:12:32.358Z,66.80
2017-10-03T13:15:00.526Z,67.70
2017-10-03T13:17:28.635Z,66.20
2017-10-03T13:19:57.502Z,67.60
2017-10-03T13:22:25.607Z,67.50
2017-10-03T13:24:53.683Z,66.90
2017-10-03T13:27:21.787Z,67.90
2017-10-03T13:29:49.875Z,68.90
2017-10-03T13:32:18.169Z,70.00
2017-10-03T13:34:48.260Z,69.80
2017-10-03T13:37:16.410Z,72.20
2017-10-03T13:39:44.530Z,72.20
2017-10-03T13:42:13.679Z,70.60
2017-10-03T13:44:41.819Z,73.40
2017-10-03T13:47:10.682Z,77.00
2017-10-03T13:49:39.681Z,77.00
2017-10-03T13:52:08.723Z,78.00
2017-10-03T13:54:36.830Z,80.00
2017-10-03T13:57:04.943Z,80.70
2017-10-03T13:59:33.816Z,80.90
2017-10-03T14:02:01.948Z,80.90
2017-10-03T14:04:30.037Z,77.10
2017-10-03T14:06:59.092Z,78.70
2017-10-03T14:09:27.455Z,75.80
2017-10-03T14:11:56.067Z,77.20
2017-10-03T14:14:24.214Z,78.60
2017-10-03T14:16:52.434Z,75.40
2017-10-03T14:19:21.314Z,78.00
2017-10-03T14:21:49.436Z,78.00
2017-10-03T14:24:17.515Z,74.80
2017-10-03T14:26:45.671Z,73.10
2017-10-03T14:29:13.739Z,74.10
2017-10-03T14:31:41.821Z,74.30
2017-10-03T14:34:10.725Z,74.60
2017-10-03T14:36:38.807Z,74.70
2017-10-03T14:39:06.919Z,74.80
2017-10-03T14:41:35.076Z,74.60
2017-10-03T14:44:03.209Z,75.10
2017-10-03T14:46:31.334Z,74.60
2017-10-03T14:48:59.439Z,75.10
2017-10-03T14:51:27.560Z,74.90
2017-10-03T14:53:55.661Z,76.10
2017-10-03T14:56:23.754Z,75.50
2017-10-03T14:58:51.834Z,76.10
2017-10-03T15:01:19.923Z,75.60
2017-10-03T15:03:48.179Z,75.90
2017-10-03T15:06:16.271Z,75.70
2017-10-03T15:08:44.486Z,76.20
2017-10-03T15:11:12.578Z,76.30
2017-10-03T15:13:40.662Z,74.60
2017-10-03T15:16:08.772Z,75.30
2017-10-03T15:18:36.873Z,75.90
2017-10-03T15:21:05.976Z,76.50
2017-10-03T15:23:34.075Z,76.50
2017-10-03T15:26:02.205Z,78.10
2017-10-03T15:28:30.336Z,76.10
2017-10-03T15:30:58.454Z,77.10
2017-10-03T15:33:26.720Z,77.90
2017-10-03T15:35:54.901Z,79.10
2017-10-03T15:38:23.003Z,77.50
2017-10-03T15:40:51.227Z,78.50
2017-10-03T15:43:19.303Z,79.80
2017-10-03T15:45:48.201Z,79.90
2017-10-03T15:48:16.294Z,79.90
2017-10-03T15:50:45.020Z,81.30
2017-10-03T15:53:13.563Z,79.70
2017-10-03T15:55:41.916Z,78.30
2017-10-03T15:58:10.816Z,78.60
2017-10-03T16:00:39.140Z,78.60
2017-10-03T16:03:07.328Z,78.40
2017-10-03T16:05:36.744Z,78.70
2017-10-03T16:08:06.045Z,80.10
2017-10-03T16:10:35.064Z,79.60
2017-10-03T16:13:03.944Z,78.20
2017-10-03T16:15:32.816Z,79.10
2017-10-03T16:18:01.053Z,79.10
2017-10-03T16:20:29.145Z,79.80
2017-10-03T16:22:57.389Z,79.50
2017-10-03T16:25:25.521Z,77.90
2017-10-03T16:27:53.721Z,79.40
2017-10-03T16:30:21.923Z,77.70
2017-10-03T16:32:50.056Z,79.10
2017-10-03T16:35:19.280Z,79.20
2017-10-03T16:37:47.497Z,79.30
2017-10-03T16:40:15.752Z,79.80
2017-10-03T16:42:44.040Z,81.10
2017-10-03T16:45:12.211Z,81.50
2017-10-03T16:47:40.346Z,82.00
2017-10-03T16:50:09.147Z,81.30
2017-10-03T16:52:37.273Z,82.30
2017-10-03T16:55:05.353Z,81.30
2017-10-03T16:57:34.239Z,81.70
2017-10-03T17:00:03.271Z,83.30
2017-10-03T17:02:31.377Z,83.20
2017-10-03T17:04:59.504Z,82.30
2017-10-03T17:07:27.599Z,82.50
2017-10-03T17:09:55.707Z,81.40
2017-10-03T17:12:24.060Z,81.00
2017-10-03T17:14:52.303Z,83.80
2017-10-03T17:17:21.012Z,82.90
2017-10-03T17:19:49.206Z,82.70
2017-10-03T17:22:17.376Z,83.70
2017-10-03T17:24:46.367Z,84.10
2017-10-03T17:27:14.917Z,83.50
2017-10-03T17:29:43.041Z,85.30
2017-10-03T17:32:11.175Z,84.90
2017-10-03T17:34:39.555Z,85.50
2017-10-03T17:37:08.666Z,85.70
2017-10-03T17:39:40.992Z,85.20
2017-10-03T17:42:10.907Z,86.40
2017-10-03T17:44:40.060Z,86.20
2017-10-03T17:47:08.314Z,86.20
2017-10-03T17:49:36.393Z,86.50
2017-10-03T17:52:04.672Z,87.70
2017-10-03T17:54:32.780Z,89.30
2017-10-03T17:57:00.917Z,90.00
2017-10-03T17:59:29.003Z,90.50
2017-10-03T18:01:58.192Z,90.20
2017-10-03T18:04:32.102Z,90.00
2017-10-03T18:07:05.607Z,90.90
2017-10-03T18:09:42.220Z,91.40
2017-10-03T18:12:13.734Z,90.60
2017-10-03T18:14:46.459Z,90.80
2017-10-03T18:17:19.108Z,91.30
2017-10-03T18:20:00.693Z,91.90
2017-10-03T18:22:29.147Z,91.90
2017-10-03T18:24:57.621Z,92.50
2017-10-03T18:27:26.269Z,92.80
2017-10-03T18:29:55.453Z,92.90
2017-10-03T18:32:23.827Z,92.90
2017-10-03T18:34:52.025Z,91.80
2017-10-03T18:37:20.848Z,92.40
2017-10-03T18:39:49.023Z,91.20
2017-10-03T18:42:18.178Z,91.40
2017-10-03T18:44:46.838Z,91.20
2017-10-03T18:47:15.879Z,91.50
2017-10-03T18:49:44.183Z,90.50
2017-10-03T18:52:12.863Z,90.10
2017-10-03T18:54:41.482Z,90.20
2017-10-03T18:57:09.797Z,90.10
2017-10-03T18:59:38.516Z,88.90
2017-10-03T19:02:07.374Z,89.50
2017-10-03T19:04:36.009Z,89.50
2017-10-03T19:07:04.489Z,88.30
2017-10-03T19:09:33.679Z,88.50
2017-10-03T19:12:02.183Z,88.40
2017-10-03T19:14:30.691Z,87.40
2017-10-03T19:17:00.072Z,87.10
2017-10-03T19:19:28.531Z,87.40
2017-10-03T19:21:57.080Z,86.80
2017-10-03T19:24:25.707Z,87.40
2017-10-03T19:26:54.216Z,87.10
2017-10-03T19:29:22.713Z,86.50
2017-10-03T19:31:51.354Z,85.60
2017-10-03T19:34:20.646Z,86.40
2017-10-03T19:36:50.426Z,85.90
2017-10-03T19:39:18.943Z,85.90
2017-10-03T19:41:48.100Z,86.40
2017-10-03T19:44:16.640Z,86.70
2017-10-03T19:46:45.062Z,86.60
2017-10-03T19:49:13.673Z,85.20
2017-10-03T19:51:42.127Z,85.10
2017-10-03T19:54:12.541Z,87.60
2017-10-03T19:56:41.105Z,87.20
2017-10-03T19:59:10.048Z,85.40
2017-10-03T20:01:39.089Z,85.30
2017-10-03T20:04:07.519Z,90.00
2017-10-03T20:06:35.902Z,86.80
2017-10-03T20:09:04.081Z,88.70
2017-10-03T20:11:32.246Z,88.60
2017-10-03T20:14:00.400Z,87.70
2017-10-03T20:16:28.688Z,87.00
2017-10-03T20:18:57.985Z,90.00
2017-10-03T20:21:26.088Z,88.00
2017-10-03T20:23:54.241Z,88.30
2017-10-03T20:26:22.439Z,90.50
2017-10-03T20:28:51.863Z,89.60
2017-10-03T20:31:20.244Z,90.20
2017-10-03T20:33:48.523Z,88.90
2017-10-03T20:36:17.628Z,90.80
2017-10-03T20:38:46.980Z,90.20
2017-10-03T20:41:15.149Z,90.10
2017-10-03T20:43:43.271Z,90.90
2017-10-03T20:46:12.839Z,91.50
2017-10-03T20:48:41.043Z,92.00
2017-10-03T20:51:09.686Z,92.00
2017-10-03T20:53:37.771Z,92.20
2017-10-03T20:56:05.962Z,91.90
2017-10-03T20:58:34.061Z,92.40
2017-10-03T21:01:02.196Z,92.30
2017-10-03T21:03:30.553Z,91.80
2017-10-03T21:05:59.715Z,91.90
2017-10-03T21:08:27.830Z,90.80
2017-10-03T21:10:55.927Z,91.70
2017-10-03T21:13:24.057Z,91.70
2017-10-03T21:15:52.171Z,91.60
2017-10-03T21:18:20.264Z,91.50
2017-10-03T21:20:49.299Z,91.10
2017-10-03T21:23:17.410Z,91.60
2017-10-03T21:25:45.552Z,92.10
2017-10-03T21:28:13.639Z,91.70
2017-10-03T21:30:41.722Z,92.50
2017-10-03T21:33:09.846Z,92.20
2017-10-03T21:35:37.986Z,92.40
2017-10-03T21:38:06.130Z,92.50
2017-10-03T21:40:34.257Z,92.60
2017-10-03T21:43:12.440Z,92.50
2017-10-03T21:45:40.612Z,92.80
2017-10-03T21:48:08.716Z,92.70
2017-10-03T21:50:37.048Z,93.00
2017-10-03T21:53:05.173Z,92.90
2017-10-03T21:55:34.951Z,92.80
2017-10-03T21:58:03.064Z,92.70
2017-10-03T22:00:31.184Z,92.90
2017-10-03T22:02:59.399Z,92.90
2017-10-03T22:05:27.631Z,92.90
2017-10-03T22:07:56.292Z,92.90
2017-10-03T22:10:24.437Z,93.00
2017-10-03T22:12:52.567Z,92.20
2017-10-03T22:15:20.660Z,91.30
2017-10-03T22:17:48.863Z,92.30
2017-10-03T22:20:16.987Z,91.90
2017-10-03T22:22:45.141Z,91.50
2017-10-03T22:25:13.263Z,92.20
2017-10-03T22:27:41.404Z,91.90
2017-10-03T22:30:09.508Z,92.40
2017-10-03T22:32:37.617Z,93.00
2017-10-03T22:35:05.947Z,92.40
2017-10-03T22:37:34.296Z,92.60
2017-10-03T22:40:02.780Z,92.80
2017-10-03T22:42:30.895Z,92.30
2017-10-03T22:44:59.872Z,92.60
2017-10-03T22:47:28.982Z,93.00
2017-10-03T22:49:57.141Z,92.90
2017-10-03T22:52:30.185Z,92.70
2017-10-03T22:54:58.259Z,92.70
2017-10-03T22:57:26.370Z,93.10
2017-10-03T22:59:54.513Z,93.10
2017-10-03T23:02:22.622Z,93.00
2017-10-03T23:04:50.956Z,92.50
2017-10-03T23:07:19.057Z,92.40
2017-10-03T23:09:47.242Z,92.10
2017-10-03T23:12:15.353Z,92.50
2017-10-03T23:14:43.471Z,92.80
2017-10-03T23:17:11.601Z,93.10
2017-10-03T23:19:39.688Z,93.10
2017-10-03T23:22:07.831Z,93.00
2017-10-03T23:24:36.700Z,93.50
2017-10-03T23:27:04.827Z,93.50
2017-10-03T23:29:32.911Z,93.40
2017-10-03T23:32:01.006Z,93.40
2017-10-03T23:34:29.180Z,93.60
2017-10-03T23:36:57.283Z,93.50
2017-10-03T23:39:25.411Z,93.00
2017-10-03T23:41:53.574Z,93.20
2017-10-03T23:44:21.711Z,93.10
2017-10-03T23:46:50.321Z,93.30
2017-10-03T23:49:18.436Z,93.40
2017-10-03T23:51:46.989Z,93.30
2017-10-03T23:54:16.009Z,93.40
2017-10-03T23:56:44.139Z,93.30
2017-10-03T23:59:12.220Z,92.40
